sensor_id;sensor_type;location;lat;lon;timestamp;P1;durP1;ratioP1;P2;durP2;ratioP2
67156;SDS011;54086;50.126;8.710;2023-07-28T00:02:21;7.90;;;3.30;;
67156;SDS011;54086;50.126;8.710;2023-07-28T00:04:46;6.35;;;2.80;;
67156;SDS011;54086;50.126;8.710;2023-07-28T00:07:12;6.83;;;2.93;;
67156;SDS011;54086;50.126;8.710;2023-07-28T00:09:38;7.88;;;3.20;;
67156;SDS011;54086;50.126;8.710;2023-07-28T00:12:04;8.67;;;2.90;;
67156;SDS011;54086;50.126;8.710;2023-07-28T00:14:29;8.48;;;2.90;;
67156;SDS011;54086;50.126;8.710;2023-07-28T00:16:57;6.30;;;2.60;;
67156;SDS011;54086;50.126;8.710;2023-07-28T00:19:22;6.40;;;2.67;;
67156;SDS011;54086;50.126;8.710;2023-07-28T00:21:48;7.82;;;2.65;;
67156;SDS011;54086;50.126;8.710;2023-07-28T00:24:15;8.27;;;2.67;;
67156;SDS011;54086;50.126;8.710;2023-07-28T00:26:42;7.10;;;2.65;;
67156;SDS011;54086;50.126;8.710;2023-07-28T00:29:07;6.20;;;2.60;;
67156;SDS011;54086;50.126;8.710;2023-07-28T00:31:33;6.03;;;2.50;;
67156;SDS011;54086;50.126;8.710;2023-07-28T00:33:59;6.72;;;2.15;;
67156;SDS011;54086;50.126;8.710;2023-07-28T00:36:25;7.20;;;2.83;;
67156;SDS011;54086;50.126;8.710;2023-07-28T00:38:53;6.55;;;2.40;;
67156;SDS011;54086;50.126;8.710;2023-07-28T00:41:19;6.57;;;2.50;;
67156;SDS011;54086;50.126;8.710;2023-07-28T00:43:44;5.90;;;2.60;;
67156;SDS011;54086;50.126;8.710;2023-07-28T00:46:10;7.13;;;2.90;;
67156;SDS011;54086;50.126;8.710;2023-07-28T00:48:35;7.07;;;2.70;;
67156;SDS011;54086;50.126;8.710;2023-07-28T00:51:01;7.93;;;3.27;;
67156;SDS011;54086;50.126;8.710;2023-07-28T00:53:28;8.15;;;3.25;;
67156;SDS011;54086;50.126;8.710;2023-07-28T00:55:54;8.25;;;3.63;;
67156;SDS011;54086;50.126;8.710;2023-07-28T00:58:20;8.73;;;3.55;;
67156;SDS011;54086;50.126;8.710;2023-07-28T01:00:46;7.70;;;3.63;;
67156;SDS011;54086;50.126;8.710;2023-07-28T01:03:12;8.17;;;3.87;;
67156;SDS011;54086;50.126;8.710;2023-07-28T01:11:34;8.33;;;3.57;;
67156;SDS011;54086;50.126;8.710;2023-07-28T01:14:00;8.45;;;3.65;;
67156;SDS011;54086;50.126;8.710;2023-07-28T01:16:27;8.13;;;3.33;;
67156;SDS011;54086;50.126;8.710;2023-07-28T01:18:52;8.23;;;3.83;;
67156;SDS011;54086;50.126;8.710;2023-07-28T01:21:21;8.53;;;3.60;;
67156;SDS011;54086;50.126;8.710;2023-07-28T01:24:08;8.57;;;3.63;;
67156;SDS011;54086;50.126;8.710;2023-07-28T01:27:14;9.18;;;3.30;;
67156;SDS011;54086;50.126;8.710;2023-07-28T01:29:40;8.10;;;3.78;;
67156;SDS011;54086;50.126;8.710;2023-07-28T01:32:05;7.87;;;3.23;;
67156;SDS011;54086;50.126;8.710;2023-07-28T01:34:31;8.13;;;4.10;;
67156;SDS011;54086;50.126;8.710;2023-07-28T01:36:57;8.90;;;3.70;;
67156;SDS011;54086;50.126;8.710;2023-07-28T01:39:22;10.47;;;4.33;;
67156;SDS011;54086;50.126;8.710;2023-07-28T01:41:48;9.20;;;3.90;;
67156;SDS011;54086;50.126;8.710;2023-07-28T01:44:14;7.83;;;4.13;;
67156;SDS011;54086;50.126;8.710;2023-07-28T01:46:40;7.57;;;3.78;;
67156;SDS011;54086;50.126;8.710;2023-07-28T01:49:05;8.80;;;3.97;;
67156;SDS011;54086;50.126;8.710;2023-07-28T01:51:30;7.80;;;3.87;;
67156;SDS011;54086;50.126;8.710;2023-07-28T01:53:56;8.37;;;3.90;;
67156;SDS011;54086;50.126;8.710;2023-07-28T01:56:23;10.20;;;4.68;;
67156;SDS011;54086;50.126;8.710;2023-07-28T01:58:48;8.87;;;4.23;;
67156;SDS011;54086;50.126;8.710;2023-07-28T02:01:14;9.32;;;4.07;;
67156;SDS011;54086;50.126;8.710;2023-07-28T02:03:40;7.50;;;3.90;;
67156;SDS011;54086;50.126;8.710;2023-07-28T02:06:05;9.25;;;4.03;;
67156;SDS011;54086;50.126;8.710;2023-07-28T02:08:30;8.30;;;4.40;;
67156;SDS011;54086;50.126;8.710;2023-07-28T02:10:56;7.60;;;4.00;;
67156;SDS011;54086;50.126;8.710;2023-07-28T02:13:21;8.13;;;3.73;;
67156;SDS011;54086;50.126;8.710;2023-07-28T02:15:47;9.43;;;4.38;;
67156;SDS011;54086;50.126;8.710;2023-07-28T02:18:12;8.47;;;4.07;;
67156;SDS011;54086;50.126;8.710;2023-07-28T02:20:37;8.60;;;4.07;;
67156;SDS011;54086;50.126;8.710;2023-07-28T02:23:04;8.32;;;4.13;;
67156;SDS011;54086;50.126;8.710;2023-07-28T02:25:29;8.33;;;4.50;;
67156;SDS011;54086;50.126;8.710;2023-07-28T02:27:55;8.52;;;3.80;;
67156;SDS011;54086;50.126;8.710;2023-07-28T02:30:20;7.83;;;3.63;;
67156;SDS011;54086;50.126;8.710;2023-07-28T02:32:46;8.87;;;4.07;;
67156;SDS011;54086;50.126;8.710;2023-07-28T02:35:11;10.20;;;4.17;;
67156;SDS011;54086;50.126;8.710;2023-07-28T02:37:36;7.50;;;3.43;;
67156;SDS011;54086;50.126;8.710;2023-07-28T02:40:02;8.57;;;4.07;;
67156;SDS011;54086;50.126;8.710;2023-07-28T02:42:28;9.65;;;4.28;;
67156;SDS011;54086;50.126;8.710;2023-07-28T02:44:54;9.60;;;4.10;;
67156;SDS011;54086;50.126;8.710;2023-07-28T02:47:19;7.43;;;3.95;;
67156;SDS011;54086;50.126;8.710;2023-07-28T02:49:44;9.30;;;4.53;;
67156;SDS011;54086;50.126;8.710;2023-07-28T02:52:10;7.13;;;3.50;;
67156;SDS011;54086;50.126;8.710;2023-07-28T02:54:36;9.60;;;4.00;;
67156;SDS011;54086;50.126;8.710;2023-07-28T02:57:01;8.90;;;4.40;;
67156;SDS011;54086;50.126;8.710;2023-07-28T02:59:27;8.45;;;4.10;;
67156;SDS011;54086;50.126;8.710;2023-07-28T03:01:53;9.18;;;4.45;;
67156;SDS011;54086;50.126;8.710;2023-07-28T03:04:18;8.43;;;4.73;;
67156;SDS011;54086;50.126;8.710;2023-07-28T03:06:45;9.40;;;4.07;;
67156;SDS011;54086;50.126;8.710;2023-07-28T03:09:11;7.10;;;3.47;;
67156;SDS011;54086;50.126;8.710;2023-07-28T03:11:37;7.95;;;4.32;;
67156;SDS011;54086;50.126;8.710;2023-07-28T03:14:02;9.37;;;3.50;;
67156;SDS011;54086;50.126;8.710;2023-07-28T03:16:27;8.23;;;4.07;;
67156;SDS011;54086;50.126;8.710;2023-07-28T03:18:53;7.77;;;3.93;;
67156;SDS011;54086;50.126;8.710;2023-07-28T03:21:18;8.77;;;3.60;;
67156;SDS011;54086;50.126;8.710;2023-07-28T03:23:44;8.20;;;4.03;;
67156;SDS011;54086;50.126;8.710;2023-07-28T03:26:09;9.13;;;4.17;;
67156;SDS011;54086;50.126;8.710;2023-07-28T03:28:34;10.20;;;5.07;;
67156;SDS011;54086;50.126;8.710;2023-07-28T03:31:00;13.07;;;4.30;;
67156;SDS011;54086;50.126;8.710;2023-07-28T03:33:27;8.75;;;4.13;;
67156;SDS011;54086;50.126;8.710;2023-07-28T03:35:52;8.60;;;4.37;;
67156;SDS011;54086;50.126;8.710;2023-07-28T03:38:18;9.20;;;3.90;;
67156;SDS011;54086;50.126;8.710;2023-07-28T03:40:44;10.68;;;4.40;;
67156;SDS011;54086;50.126;8.710;2023-07-28T03:43:09;9.53;;;4.57;;
67156;SDS011;54086;50.126;8.710;2023-07-28T03:45:35;9.73;;;4.07;;
67156;SDS011;54086;50.126;8.710;2023-07-28T03:48:01;8.70;;;4.10;;
67156;SDS011;54086;50.126;8.710;2023-07-28T03:50:26;9.77;;;4.13;;
67156;SDS011;54086;50.126;8.710;2023-07-28T03:52:52;10.40;;;4.90;;
67156;SDS011;54086;50.126;8.710;2023-07-28T03:55:18;8.53;;;4.03;;
67156;SDS011;54086;50.126;8.710;2023-07-28T03:57:43;8.48;;;4.15;;
67156;SDS011;54086;50.126;8.710;2023-07-28T04:00:09;8.00;;;4.17;;
67156;SDS011;54086;50.126;8.710;2023-07-28T04:02:35;8.30;;;3.83;;
67156;SDS011;54086;50.126;8.710;2023-07-28T04:05:01;8.43;;;4.07;;
67156;SDS011;54086;50.126;8.710;2023-07-28T04:07:26;8.43;;;4.15;;
67156;SDS011;54086;50.126;8.710;2023-07-28T04:09:52;8.27;;;4.20;;
67156;SDS011;54086;50.126;8.710;2023-07-28T04:12:17;7.90;;;4.10;;
67156;SDS011;54086;50.126;8.710;2023-07-28T04:14:43;9.70;;;4.70;;
67156;SDS011;54086;50.126;8.710;2023-07-28T04:17:08;8.97;;;4.87;;
67156;SDS011;54086;50.126;8.710;2023-07-28T04:19:33;8.83;;;4.10;;
67156;SDS011;54086;50.126;8.710;2023-07-28T04:22:00;7.65;;;3.80;;
67156;SDS011;54086;50.126;8.710;2023-07-28T04:24:26;7.27;;;3.70;;
67156;SDS011;54086;50.126;8.710;2023-07-28T04:26:51;11.48;;;3.85;;
67156;SDS011;54086;50.126;8.710;2023-07-28T04:29:17;9.20;;;3.93;;
67156;SDS011;54086;50.126;8.710;2023-07-28T04:31:43;7.88;;;3.70;;
67156;SDS011;54086;50.126;8.710;2023-07-28T04:34:09;7.30;;;3.73;;
67156;SDS011;54086;50.126;8.710;2023-07-28T04:36:34;8.35;;;3.40;;
67156;SDS011;54086;50.126;8.710;2023-07-28T04:39:00;7.33;;;3.50;;
67156;SDS011;54086;50.126;8.710;2023-07-28T04:41:25;7.57;;;3.77;;
67156;SDS011;54086;50.126;8.710;2023-07-28T04:43:51;7.35;;;3.42;;
67156;SDS011;54086;50.126;8.710;2023-07-28T04:46:16;8.33;;;3.70;;
67156;SDS011;54086;50.126;8.710;2023-07-28T04:48:41;7.57;;;3.67;;
67156;SDS011;54086;50.126;8.710;2023-07-28T04:51:07;8.70;;;3.67;;
67156;SDS011;54086;50.126;8.710;2023-07-28T04:53:32;7.13;;;3.37;;
67156;SDS011;54086;50.126;8.710;2023-07-28T04:55:58;8.73;;;3.70;;
67156;SDS011;54086;50.126;8.710;2023-07-28T04:58:23;8.20;;;3.25;;
67156;SDS011;54086;50.126;8.710;2023-07-28T05:00:50;6.70;;;3.60;;
67156;SDS011;54086;50.126;8.710;2023-07-28T05:03:16;9.55;;;3.63;;
67156;SDS011;54086;50.126;8.710;2023-07-28T05:05:44;7.00;;;3.13;;
67156;SDS011;54086;50.126;8.710;2023-07-28T05:08:10;7.13;;;3.17;;
67156;SDS011;54086;50.126;8.710;2023-07-28T05:10:35;7.27;;;3.40;;
67156;SDS011;54086;50.126;8.710;2023-07-28T05:13:01;8.43;;;3.70;;
67156;SDS011;54086;50.126;8.710;2023-07-28T05:15:29;6.93;;;3.10;;
67156;SDS011;54086;50.126;8.710;2023-07-28T05:17:54;7.95;;;3.10;;
67156;SDS011;54086;50.126;8.710;2023-07-28T05:20:20;7.17;;;3.30;;
67156;SDS011;54086;50.126;8.710;2023-07-28T05:22:45;7.10;;;3.10;;
67156;SDS011;54086;50.126;8.710;2023-07-28T05:25:11;7.78;;;3.30;;
67156;SDS011;54086;50.126;8.710;2023-07-28T05:27:36;7.23;;;3.17;;
67156;SDS011;54086;50.126;8.710;2023-07-28T05:30:02;7.40;;;3.80;;
67156;SDS011;54086;50.126;8.710;2023-07-28T05:32:27;7.13;;;3.10;;
67156;SDS011;54086;50.126;8.710;2023-07-28T05:34:52;6.67;;;3.07;;
67156;SDS011;54086;50.126;8.710;2023-07-28T05:37:18;7.57;;;2.95;;
67156;SDS011;54086;50.126;8.710;2023-07-28T05:39:44;7.67;;;3.60;;
67156;SDS011;54086;50.126;8.710;2023-07-28T05:42:09;7.73;;;3.07;;
67156;SDS011;54086;50.126;8.710;2023-07-28T05:44:35;8.93;;;3.90;;
67156;SDS011;54086;50.126;8.710;2023-07-28T05:47:00;7.53;;;3.92;;
67156;SDS011;54086;50.126;8.710;2023-07-28T05:49:27;8.98;;;3.63;;
67156;SDS011;54086;50.126;8.710;2023-07-28T05:51:52;7.90;;;3.70;;
67156;SDS011;54086;50.126;8.710;2023-07-28T05:54:18;8.10;;;4.17;;
67156;SDS011;54086;50.126;8.710;2023-07-28T05:56:43;7.73;;;3.50;;
67156;SDS011;54086;50.126;8.710;2023-07-28T05:59:09;7.13;;;3.70;;
67156;SDS011;54086;50.126;8.710;2023-07-28T06:01:34;7.90;;;3.30;;
67156;SDS011;54086;50.126;8.710;2023-07-28T06:04:00;7.33;;;3.67;;
67156;SDS011;54086;50.126;8.710;2023-07-28T06:06:26;9.70;;;3.63;;
67156;SDS011;54086;50.126;8.710;2023-07-28T06:08:52;7.13;;;3.22;;
67156;SDS011;54086;50.126;8.710;2023-07-28T06:11:18;6.95;;;3.30;;
67156;SDS011;54086;50.126;8.710;2023-07-28T06:13:43;6.77;;;3.33;;
67156;SDS011;54086;50.126;8.710;2023-07-28T06:16:11;7.15;;;3.30;;
67156;SDS011;54086;50.126;8.710;2023-07-28T06:18:36;7.10;;;3.03;;
67156;SDS011;54086;50.126;8.710;2023-07-28T06:21:02;7.93;;;3.30;;
67156;SDS011;54086;50.126;8.710;2023-07-28T06:23:28;7.88;;;3.70;;
67156;SDS011;54086;50.126;8.710;2023-07-28T06:25:53;7.07;;;3.80;;
67156;SDS011;54086;50.126;8.710;2023-07-28T06:28:20;7.55;;;3.38;;
67156;SDS011;54086;50.126;8.710;2023-07-28T06:30:45;8.38;;;3.08;;
67156;SDS011;54086;50.126;8.710;2023-07-28T06:33:11;8.17;;;3.00;;
67156;SDS011;54086;50.126;8.710;2023-07-28T06:35:37;7.93;;;3.40;;
67156;SDS011;54086;50.126;8.710;2023-07-28T06:38:02;7.20;;;3.00;;
67156;SDS011;54086;50.126;8.710;2023-07-28T06:40:28;7.53;;;2.93;;
67156;SDS011;54086;50.126;8.710;2023-07-28T06:42:53;6.93;;;3.13;;
67156;SDS011;54086;50.126;8.710;2023-07-28T06:45:19;8.27;;;3.33;;
67156;SDS011;54086;50.126;8.710;2023-07-28T06:47:45;7.47;;;2.95;;
67156;SDS011;54086;50.126;8.710;2023-07-28T06:50:11;5.83;;;2.43;;
67156;SDS011;54086;50.126;8.710;2023-07-28T06:52:36;7.80;;;3.00;;
67156;SDS011;54086;50.126;8.710;2023-07-28T06:55:03;7.50;;;2.80;;
67156;SDS011;54086;50.126;8.710;2023-07-28T06:57:29;6.13;;;2.47;;
67156;SDS011;54086;50.126;8.710;2023-07-28T06:59:55;5.85;;;2.65;;
67156;SDS011;54086;50.126;8.710;2023-07-28T07:02:21;6.55;;;2.80;;
67156;SDS011;54086;50.126;8.710;2023-07-28T07:04:46;6.00;;;2.40;;
67156;SDS011;54086;50.126;8.710;2023-07-28T07:07:12;6.20;;;2.60;;
67156;SDS011;54086;50.126;8.710;2023-07-28T07:09:37;5.23;;;1.97;;
67156;SDS011;54086;50.126;8.710;2023-07-28T07:12:03;6.07;;;2.22;;
67156;SDS011;54086;50.126;8.710;2023-07-28T07:14:29;5.10;;;1.83;;
67156;SDS011;54086;50.126;8.710;2023-07-28T07:16:55;5.03;;;1.80;;
67156;SDS011;54086;50.126;8.710;2023-07-28T07:19:20;6.10;;;2.30;;
67156;SDS011;54086;50.126;8.710;2023-07-28T07:21:46;5.53;;;1.67;;
67156;SDS011;54086;50.126;8.710;2023-07-28T07:24:12;6.35;;;1.90;;
67156;SDS011;54086;50.126;8.710;2023-07-28T07:26:41;5.85;;;1.88;;
67156;SDS011;54086;50.126;8.710;2023-07-28T07:29:07;5.20;;;1.90;;
67156;SDS011;54086;50.126;8.710;2023-07-28T07:31:33;4.03;;;2.00;;
67156;SDS011;54086;50.126;8.710;2023-07-28T07:33:58;5.73;;;2.20;;
67156;SDS011;54086;50.126;8.710;2023-07-28T07:36:24;4.13;;;1.65;;
67156;SDS011;54086;50.126;8.710;2023-07-28T07:38:50;4.40;;;1.83;;
67156;SDS011;54086;50.126;8.710;2023-07-28T07:41:15;5.93;;;2.13;;
67156;SDS011;54086;50.126;8.710;2023-07-28T07:43:46;7.13;;;2.33;;
67156;SDS011;54086;50.126;8.710;2023-07-28T07:46:13;4.60;;;1.67;;
67156;SDS011;54086;50.126;8.710;2023-07-28T07:48:39;4.13;;;1.75;;
67156;SDS011;54086;50.126;8.710;2023-07-28T07:51:05;3.57;;;1.50;;
67156;SDS011;54086;50.126;8.710;2023-07-28T07:53:30;4.60;;;2.00;;
67156;SDS011;54086;50.126;8.710;2023-07-28T07:55:55;4.47;;;1.85;;
67156;SDS011;54086;50.126;8.710;2023-07-28T07:58:22;7.13;;;1.90;;
67156;SDS011;54086;50.126;8.710;2023-07-28T08:00:47;6.20;;;2.10;;
67156;SDS011;54086;50.126;8.710;2023-07-28T08:03:13;3.77;;;1.30;;
67156;SDS011;54086;50.126;8.710;2023-07-28T08:05:38;3.77;;;1.60;;
67156;SDS011;54086;50.126;8.710;2023-07-28T08:08:04;4.10;;;1.60;;
67156;SDS011;54086;50.126;8.710;2023-07-28T08:10:32;4.30;;;1.70;;
67156;SDS011;54086;50.126;8.710;2023-07-28T08:12:58;3.13;;;1.40;;
67156;SDS011;54086;50.126;8.710;2023-07-28T08:15:26;4.82;;;1.70;;
67156;SDS011;54086;50.126;8.710;2023-07-28T08:17:51;3.45;;;1.40;;
67156;SDS011;54086;50.126;8.710;2023-07-28T08:20:17;3.42;;;1.50;;
67156;SDS011;54086;50.126;8.710;2023-07-28T08:22:43;4.67;;;1.63;;
67156;SDS011;54086;50.126;8.710;2023-07-28T08:25:09;4.15;;;1.40;;
67156;SDS011;54086;50.126;8.710;2023-07-28T08:27:34;3.27;;;1.10;;
67156;SDS011;54086;50.126;8.710;2023-07-28T08:30:00;3.97;;;1.20;;
67156;SDS011;54086;50.126;8.710;2023-07-28T08:32:25;4.75;;;1.30;;
67156;SDS011;54086;50.126;8.710;2023-07-28T08:34:50;2.67;;;1.10;;
67156;SDS011;54086;50.126;8.710;2023-07-28T08:37:16;3.47;;;1.27;;
67156;SDS011;54086;50.126;8.710;2023-07-28T08:39:41;3.55;;;1.40;;
67156;SDS011;54086;50.126;8.710;2023-07-28T08:42:07;3.97;;;1.40;;
67156;SDS011;54086;50.126;8.710;2023-07-28T08:44:33;3.43;;;1.20;;
67156;SDS011;54086;50.126;8.710;2023-07-28T08:47:02;2.63;;;1.10;;
67156;SDS011;54086;50.126;8.710;2023-07-28T08:49:32;4.28;;;1.33;;
67156;SDS011;54086;50.126;8.710;2023-07-28T08:52:00;4.18;;;1.30;;
67156;SDS011;54086;50.126;8.710;2023-07-28T08:54:26;4.07;;;1.10;;
67156;SDS011;54086;50.126;8.710;2023-07-28T08:56:52;2.72;;;1.13;;
67156;SDS011;54086;50.126;8.710;2023-07-28T08:59:25;5.87;;;1.70;;
67156;SDS011;54086;50.126;8.710;2023-07-28T09:01:55;4.82;;;1.20;;
67156;SDS011;54086;50.126;8.710;2023-07-28T09:04:23;4.25;;;1.40;;
67156;SDS011;54086;50.126;8.710;2023-07-28T09:06:49;4.85;;;1.55;;
67156;SDS011;54086;50.126;8.710;2023-07-28T09:09:16;4.47;;;1.42;;
67156;SDS011;54086;50.126;8.710;2023-07-28T09:11:48;3.37;;;1.30;;
67156;SDS011;54086;50.126;8.710;2023-07-28T09:14:18;7.75;;;2.20;;
67156;SDS011;54086;50.126;8.710;2023-07-28T09:16:46;6.43;;;2.30;;
67156;SDS011;54086;50.126;8.710;2023-07-28T09:19:13;4.00;;;1.33;;
67156;SDS011;54086;50.126;8.710;2023-07-28T09:21:39;4.10;;;1.38;;
67156;SDS011;54086;50.126;8.710;2023-07-28T09:24:09;4.53;;;1.60;;
67156;SDS011;54086;50.126;8.710;2023-07-28T09:31:40;5.32;;;1.60;;
67156;SDS011;54086;50.126;8.710;2023-07-28T09:34:08;3.50;;;1.40;;
67156;SDS011;54086;50.126;8.710;2023-07-28T09:36:35;3.50;;;1.15;;
67156;SDS011;54086;50.126;8.710;2023-07-28T09:39:02;3.55;;;1.40;;
67156;SDS011;54086;50.126;8.710;2023-07-28T09:41:31;3.23;;;1.20;;
67156;SDS011;54086;50.126;8.710;2023-07-28T09:44:00;3.38;;;1.30;;
67156;SDS011;54086;50.126;8.710;2023-07-28T09:46:26;4.40;;;1.90;;
67156;SDS011;54086;50.126;8.710;2023-07-28T09:48:55;3.67;;;1.40;;
67156;SDS011;54086;50.126;8.710;2023-07-28T09:51:22;5.32;;;1.83;;
67156;SDS011;54086;50.126;8.710;2023-07-28T09:53:58;4.67;;;1.70;;
67156;SDS011;54086;50.126;8.710;2023-07-28T09:56:31;6.50;;;1.77;;
67156;SDS011;54086;50.126;8.710;2023-07-28T09:58:59;5.13;;;1.60;;
67156;SDS011;54086;50.126;8.710;2023-07-28T10:01:28;4.30;;;1.60;;
67156;SDS011;54086;50.126;8.710;2023-07-28T10:03:54;4.57;;;1.70;;
67156;SDS011;54086;50.126;8.710;2023-07-28T10:06:19;4.60;;;1.57;;
67156;SDS011;54086;50.126;8.710;2023-07-28T10:08:49;4.17;;;1.40;;
67156;SDS011;54086;50.126;8.710;2023-07-28T10:11:15;5.05;;;1.60;;
67156;SDS011;54086;50.126;8.710;2023-07-28T10:13:42;4.90;;;2.00;;
67156;SDS011;54086;50.126;8.710;2023-07-28T10:16:09;4.47;;;1.60;;
67156;SDS011;54086;50.126;8.710;2023-07-28T10:18:35;3.57;;;1.30;;
67156;SDS011;54086;50.126;8.710;2023-07-28T10:21:05;6.03;;;2.20;;
67156;SDS011;54086;50.126;8.710;2023-07-28T10:23:41;4.85;;;1.80;;
67156;SDS011;54086;50.126;8.710;2023-07-28T10:26:06;5.37;;;1.70;;
67156;SDS011;54086;50.126;8.710;2023-07-28T10:28:36;5.05;;;1.40;;
67156;SDS011;54086;50.126;8.710;2023-07-28T10:31:10;4.68;;;1.67;;
67156;SDS011;54086;50.126;8.710;2023-07-28T10:33:45;4.07;;;1.45;;
67156;SDS011;54086;50.126;8.710;2023-07-28T10:38:37;3.05;;;1.45;;
67156;SDS011;54086;50.126;8.710;2023-07-28T10:41:07;3.08;;;1.20;;
67156;SDS011;54086;50.126;8.710;2023-07-28T10:43:34;4.60;;;1.42;;
67156;SDS011;54086;50.126;8.710;2023-07-28T10:46:00;4.43;;;1.52;;
67156;SDS011;54086;50.126;8.710;2023-07-28T10:48:25;2.60;;;1.00;;
67156;SDS011;54086;50.126;8.710;2023-07-28T10:50:51;3.70;;;1.37;;
67156;SDS011;54086;50.126;8.710;2023-07-28T10:53:16;4.95;;;1.70;;
67156;SDS011;54086;50.126;8.710;2023-07-28T10:55:42;7.07;;;1.90;;
67156;SDS011;54086;50.126;8.710;2023-07-28T10:58:09;3.97;;;1.65;;
67156;SDS011;54086;50.126;8.710;2023-07-28T11:00:34;4.63;;;1.77;;
67156;SDS011;54086;50.126;8.710;2023-07-28T11:03:00;3.47;;;1.27;;
67156;SDS011;54086;50.126;8.710;2023-07-28T11:05:27;3.80;;;1.33;;
67156;SDS011;54086;50.126;8.710;2023-07-28T11:07:57;3.45;;;1.55;;
67156;SDS011;54086;50.126;8.710;2023-07-28T11:10:24;4.97;;;1.60;;
67156;SDS011;54086;50.126;8.710;2023-07-28T11:12:51;4.50;;;1.30;;
67156;SDS011;54086;50.126;8.710;2023-07-28T11:15:17;4.25;;;1.40;;
67156;SDS011;54086;50.126;8.710;2023-07-28T11:17:46;6.47;;;2.00;;
67156;SDS011;54086;50.126;8.710;2023-07-28T11:20:23;3.83;;;1.23;;
67156;SDS011;54086;50.126;8.710;2023-07-28T11:23:13;6.32;;;1.67;;
67156;SDS011;54086;50.126;8.710;2023-07-28T11:25:38;4.80;;;1.50;;
67156;SDS011;54086;50.126;8.710;2023-07-28T11:28:04;3.73;;;1.40;;
67156;SDS011;54086;50.126;8.710;2023-07-28T11:30:30;4.63;;;1.60;;
67156;SDS011;54086;50.126;8.710;2023-07-28T11:32:57;3.85;;;1.27;;
67156;SDS011;54086;50.126;8.710;2023-07-28T11:35:23;3.00;;;1.20;;
67156;SDS011;54086;50.126;8.710;2023-07-28T11:37:49;3.70;;;1.30;;
67156;SDS011;54086;50.126;8.710;2023-07-28T11:40:17;4.47;;;1.48;;
67156;SDS011;54086;50.126;8.710;2023-07-28T11:42:45;4.30;;;1.30;;
67156;SDS011;54086;50.126;8.710;2023-07-28T11:45:15;4.00;;;1.40;;
67156;SDS011;54086;50.126;8.710;2023-07-28T11:50:30;4.07;;;1.65;;
67156;SDS011;54086;50.126;8.710;2023-07-28T11:53:00;5.55;;;1.63;;
67156;SDS011;54086;50.126;8.710;2023-07-28T11:55:25;4.13;;;1.47;;
67156;SDS011;54086;50.126;8.710;2023-07-28T11:57:54;3.47;;;1.37;;
67156;SDS011;54086;50.126;8.710;2023-07-28T12:00:29;3.97;;;1.60;;
67156;SDS011;54086;50.126;8.710;2023-07-28T12:03:20;3.85;;;1.55;;
67156;SDS011;54086;50.126;8.710;2023-07-28T12:06:04;4.00;;;1.57;;
67156;SDS011;54086;50.126;8.710;2023-07-28T12:08:35;4.30;;;1.67;;
67156;SDS011;54086;50.126;8.710;2023-07-28T12:11:01;5.68;;;1.67;;
67156;SDS011;54086;50.126;8.710;2023-07-28T12:13:27;5.37;;;2.03;;
67156;SDS011;54086;50.126;8.710;2023-07-28T12:15:54;4.67;;;1.70;;
67156;SDS011;54086;50.126;8.710;2023-07-28T12:18:20;5.00;;;1.88;;
67156;SDS011;54086;50.126;8.710;2023-07-28T12:20:48;4.40;;;1.90;;
67156;SDS011;54086;50.126;8.710;2023-07-28T12:23:17;5.63;;;2.00;;
67156;SDS011;54086;50.126;8.710;2023-07-28T12:25:46;5.18;;;1.95;;
67156;SDS011;54086;50.126;8.710;2023-07-28T12:28:16;5.40;;;2.35;;
67156;SDS011;54086;50.126;8.710;2023-07-28T12:30:41;5.83;;;2.47;;
67156;SDS011;54086;50.126;8.710;2023-07-28T12:33:08;6.20;;;2.90;;
67156;SDS011;54086;50.126;8.710;2023-07-28T12:35:34;8.25;;;3.28;;
67156;SDS011;54086;50.126;8.710;2023-07-28T12:38:01;6.83;;;3.40;;
67156;SDS011;54086;50.126;8.710;2023-07-28T12:40:30;6.68;;;3.30;;
67156;SDS011;54086;50.126;8.710;2023-07-28T12:42:56;7.05;;;3.08;;
67156;SDS011;54086;50.126;8.710;2023-07-28T12:45:22;6.28;;;2.75;;
67156;SDS011;54086;50.126;8.710;2023-07-28T12:47:50;6.88;;;3.20;;
67156;SDS011;54086;50.126;8.710;2023-07-28T12:50:17;6.40;;;3.37;;
67156;SDS011;54086;50.126;8.710;2023-07-28T12:52:43;7.07;;;2.92;;
67156;SDS011;54086;50.126;8.710;2023-07-28T12:55:08;6.27;;;2.73;;
67156;SDS011;54086;50.126;8.710;2023-07-28T12:57:34;7.20;;;2.83;;
67156;SDS011;54086;50.126;8.710;2023-07-28T13:00:00;5.65;;;2.58;;
67156;SDS011;54086;50.126;8.710;2023-07-28T13:02:31;5.13;;;2.30;;
67156;SDS011;54086;50.126;8.710;2023-07-28T13:04:57;6.43;;;2.87;;
67156;SDS011;54086;50.126;8.710;2023-07-28T13:07:22;5.60;;;2.60;;
67156;SDS011;54086;50.126;8.710;2023-07-28T13:09:48;5.70;;;2.50;;
67156;SDS011;54086;50.126;8.710;2023-07-28T13:12:13;8.13;;;2.73;;
67156;SDS011;54086;50.126;8.710;2023-07-28T13:14:39;6.90;;;2.80;;
67156;SDS011;54086;50.126;8.710;2023-07-28T13:17:04;6.10;;;2.60;;
67156;SDS011;54086;50.126;8.710;2023-07-28T13:19:30;5.90;;;2.33;;
67156;SDS011;54086;50.126;8.710;2023-07-28T13:21:57;6.68;;;2.50;;
67156;SDS011;54086;50.126;8.710;2023-07-28T13:24:22;6.83;;;2.80;;
67156;SDS011;54086;50.126;8.710;2023-07-28T13:26:47;5.87;;;2.47;;
67156;SDS011;54086;50.126;8.710;2023-07-28T13:29:14;6.72;;;2.80;;
67156;SDS011;54086;50.126;8.710;2023-07-28T13:31:39;7.53;;;2.90;;
67156;SDS011;54086;50.126;8.710;2023-07-28T13:34:05;5.77;;;2.13;;
67156;SDS011;54086;50.126;8.710;2023-07-28T13:36:30;5.67;;;2.10;;
67156;SDS011;54086;50.126;8.710;2023-07-28T13:38:55;5.47;;;2.17;;
67156;SDS011;54086;50.126;8.710;2023-07-28T13:41:21;6.10;;;2.50;;
67156;SDS011;54086;50.126;8.710;2023-07-28T13:43:49;5.30;;;2.08;;
67156;SDS011;54086;50.126;8.710;2023-07-28T13:46:15;6.87;;;2.30;;
67156;SDS011;54086;50.126;8.710;2023-07-28T13:48:40;6.40;;;2.28;;
67156;SDS011;54086;50.126;8.710;2023-07-28T13:51:05;6.10;;;2.60;;
67156;SDS011;54086;50.126;8.710;2023-07-28T13:53:31;6.20;;;2.85;;
67156;SDS011;54086;50.126;8.710;2023-07-28T13:55:57;6.13;;;2.57;;
67156;SDS011;54086;50.126;8.710;2023-07-28T13:58:23;7.60;;;3.30;;
67156;SDS011;54086;50.126;8.710;2023-07-28T14:00:49;7.25;;;3.50;;
67156;SDS011;54086;50.126;8.710;2023-07-28T14:03:15;7.10;;;3.37;;
67156;SDS011;54086;50.126;8.710;2023-07-28T14:05:41;6.20;;;2.85;;
67156;SDS011;54086;50.126;8.710;2023-07-28T14:08:08;6.43;;;3.08;;
67156;SDS011;54086;50.126;8.710;2023-07-28T14:10:33;5.80;;;2.53;;
67156;SDS011;54086;50.126;8.710;2023-07-28T14:13:03;7.53;;;3.10;;
67156;SDS011;54086;50.126;8.710;2023-07-28T14:15:30;6.80;;;3.00;;
67156;SDS011;54086;50.126;8.710;2023-07-28T14:17:55;6.70;;;2.77;;
67156;SDS011;54086;50.126;8.710;2023-07-28T14:20:21;5.65;;;2.60;;
67156;SDS011;54086;50.126;8.710;2023-07-28T14:22:46;7.43;;;2.17;;
67156;SDS011;54086;50.126;8.710;2023-07-28T14:25:12;5.23;;;2.53;;
67156;SDS011;54086;50.126;8.710;2023-07-28T14:27:37;5.90;;;2.27;;
67156;SDS011;54086;50.126;8.710;2023-07-28T14:30:02;7.30;;;2.70;;
67156;SDS011;54086;50.126;8.710;2023-07-28T14:32:28;6.53;;;2.33;;
67156;SDS011;54086;50.126;8.710;2023-07-28T14:34:53;5.97;;;2.43;;
67156;SDS011;54086;50.126;8.710;2023-07-28T14:37:19;5.18;;;2.17;;
67156;SDS011;54086;50.126;8.710;2023-07-28T14:39:45;4.63;;;2.10;;
67156;SDS011;54086;50.126;8.710;2023-07-28T14:42:10;5.80;;;2.25;;
67156;SDS011;54086;50.126;8.710;2023-07-28T14:44:36;5.43;;;2.40;;
67156;SDS011;54086;50.126;8.710;2023-07-28T14:47:01;6.07;;;2.23;;
67156;SDS011;54086;50.126;8.710;2023-07-28T14:49:27;6.37;;;2.73;;
67156;SDS011;54086;50.126;8.710;2023-07-28T14:51:53;6.93;;;3.03;;
67156;SDS011;54086;50.126;8.710;2023-07-28T14:54:19;6.35;;;2.80;;
67156;SDS011;54086;50.126;8.710;2023-07-28T14:56:46;6.13;;;3.03;;
67156;SDS011;54086;50.126;8.710;2023-07-28T14:59:12;6.53;;;3.13;;
67156;SDS011;54086;50.126;8.710;2023-07-28T15:01:37;6.80;;;3.20;;